Portada
METAR-TAF:

METAR-TAF

Aeroports :

Aeroport Internacional de Ruzyně

Praga, República Txeca

latitud: 50-06N, longitud: 014-15E, altitud: 365 m

Observació

L'informe es va fer fa 14 minuts, a les 07:00 UTC
Vent 10 kt del Oest
Temperatura 9°C
Humitat 66%
Pressió 1023 hPa
Visibilitat 10 km o més
Escasses núvols a una alçada de 3300 ft

METAR: LKPR 180700Z 27010KT 9999 FEW033 09/03 Q1023 NOSIG

Hora: 09:14 (07:14 UTC)

Pronòstic

L'informe es va fer fa 2 hores i 14 minuts, a les 05:00 UTC
Pronòstic vàlid del 18 a les 06 UTC al 19 a les 12 UTC
Vent 12 kt del Oest/Nord-Oest
Visibilitat 10 km o més
sense núvols per sota de 1500 mi sense presència de cumulonimbus.
Temporalment
l' 18 a les 09 UTC al 18 a les 17 UTC
Vent 14 kt del Nord-Oest amb ràfegues de 24 kt
Evolucionant progressivament
l' 18 a les 18 UTC al 18 a les 20 UTC
Vent 8 kt del Oest

TAF: LKPR 180500Z 1806/1912 30012KT CAVOK TEMPO 1809/1817 31014G24KT BECMG 1818/1820 27008KT

Observacions i pronòstics meteorològics de més de 4000 aeroports (METAR i TAF).

Les estacions disponibles són els punts grocs i vermells al mapa.

Posi el ratolí al punt desitjat per veure el nom de l'estació.

Feu clic per veure les observacions i els pronòstics meteorològics.

Per canviar el mapa: feu clic els botons verds amb una creu de color negre per apropar; al botó verd amb un guió per allunyar la imatge; o en les fletxes verdes per a mapes adjacents.


METAR-TAF: